Time;durP1;ratioP1;P1;durP2;ratioP2;P2;SDS_P1;SDS_P2;PMS_P1;PMS_P2;Temp;Humidity;BMP_temperature;BMP_pressure;BME280_temperature;BME280_humidity;BME280_pressure;Samples;Min_cycle;Max_cycle;Signal;HPM_P1;HPM_P2
2022/07/03 00:01:31;;;;;;;;;;;;;;;21.34;57.85;101505.44;4895162;28;121599;-84
2022/07/03 00:03:57;;;;;;;;;;;;;;;21.36;57.83;101507.72;4903772;28;121963;-84
2022/07/03 00:06:22;;;;;;;;;;;;;;;21.37;57.91;101504.44;4906820;28;122191;-84
2022/07/03 00:08:48;;;;;;;;;;;;;;;21.39;58.14;101501.13;4892506;28;123496;-85
2022/07/03 00:11:14;;;;;;;;;;;;;;;21.40;58.23;101497.06;4885650;28;121671;-84
2022/07/03 00:13:40;;;;;;;;;;;;;;;21.41;58.58;101493.78;4875929;28;121382;-84
2022/07/03 00:16:05;;;;;;;;;;;;;;;21.42;58.80;101489.72;4875892;28;123111;-84
2022/07/03 00:18:31;;;;;;;;;;;;;;;21.43;59.07;101482.09;4872965;28;120069;-84
2022/07/03 00:21:01;;;;;;;;;;;;;;;21.43;59.23;101479.31;4886165;28;121782;-84
2022/07/03 00:23:29;;;;;;;;;;;;;;;21.43;59.73;101466.13;4889283;28;123963;-84
2022/07/03 00:25:55;;;;;;;;;;;;;;;21.43;59.73;101471.69;4905125;28;124336;-85
2022/07/03 00:28:20;;;;;;;;;;;;;;;21.43;59.96;101468.91;4888803;28;124144;-84
2022/07/03 00:30:47;;;;;;;;;;;;;;;21.43;59.96;101462.56;4876061;28;120028;-84
2022/07/03 00:33:13;;;;;;;;;;;;;;;21.45;60.00;101458.00;4907310;28;122097;-84
2022/07/03 00:35:39;;;;;;;;;;;;;;;21.45;60.19;101444.03;4901244;28;120803;-84
2022/07/03 00:38:04;;;;;;;;;;;;;;;21.48;60.08;101452.66;4908050;28;120039;-84
2022/07/03 00:40:30;;;;;;;;;;;;;;;21.49;60.19;101459.78;4904917;28;120190;-84
2022/07/03 00:42:59;;;;;;;;;;;;;;;21.50;60.02;101456.47;4879518;28;123564;-84
2022/07/03 00:45:25;;;;;;;;;;;;;;;21.53;60.61;101463.06;4913714;28;120506;-85
2022/07/03 00:47:51;;;;;;;;;;;;;;;21.53;61.08;101457.47;4890710;28;123501;-85
2022/07/03 00:50:16;;;;;;;;;;;;;;;21.55;60.91;101452.16;4905920;28;120030;-84
2022/07/03 00:52:45;;;;;;;;;;;;;;;21.56;61.28;101448.88;4906874;28;119854;-84
2022/07/03 00:55:16;;;;;;;;;;;;;;;21.56;61.46;101442.53;4891581;28;122489;-85
2022/07/03 00:57:44;;;;;;;;;;;;;;;21.56;61.73;101443.28;4909593;28;121910;-84
2022/07/03 01:00:10;;;;;;;;;;;;;;;21.57;62.36;101427.31;4906036;28;122516;-84
2022/07/03 01:02:45;;;;;;;;;;;;;;;21.58;61.98;101434.41;4906175;28;120509;-84
2022/07/03 01:05:22;;;;;;;;;;;;;;;21.58;61.81;101426.03;4905623;28;119812;-84
2022/07/03 01:07:54;;;;;;;;;;;;;;;21.57;61.94;101410.56;4897637;28;122727;-84
2022/07/03 01:10:19;;;;;;;;;;;;;;;21.58;61.94;101406.47;4893090;28;120057;-84
2022/07/03 01:12:45;;;;;;;;;;;;;;;21.57;61.94;101399.38;4909865;28;122812;-84
2022/07/03 01:15:15;;;;;;;;;;;;;;;21.57;62.01;101399.38;4887584;28;123846;-84
2022/07/03 01:17:47;;;;;;;;;;;;;;;21.56;62.08;101392.28;4909319;28;120995;-84
2022/07/03 01:20:14;;;;;;;;;;;;;;;21.56;62.45;101395.84;4907397;28;120145;-83
2022/07/03 01:22:44;;;;;;;;;;;;;;;21.56;62.28;101392.28;4891653;28;125730;-84
2022/07/03 01:25:15;;;;;;;;;;;;;;;21.54;62.34;101390.00;4909307;28;120380;-84
2022/07/03 01:28:04;;;;;;;;;;;;;;;21.54;62.55;101394.81;4910975;28;120313;-85
2022/07/03 01:30:31;;;;;;;;;;;;;;;21.52;62.58;101391.75;4873966;28;123105;-84
2022/07/03 01:32:58;;;;;;;;;;;;;;;21.50;62.51;101386.69;4910894;28;119967;-84
2022/07/03 01:35:27;;;;;;;;;;;;;;;21.49;62.31;101384.41;4879875;28;123328;-84
2022/07/03 01:38:06;;;;;;;;;;;;;;;21.49;62.52;101381.63;4878548;28;120243;-84
2022/07/03 01:40:33;;;;;;;;;;;;;;;21.47;62.43;101382.13;4879480;28;121652;-84
2022/07/03 01:42:59;;;;;;;;;;;;;;;21.48;62.60;101374.50;4911277;28;124240;-84
2022/07/03 01:45:27;;;;;;;;;;;;;;;21.48;62.77;101368.94;4912582;28;120284;-84
2022/07/03 01:47:55;;;;;;;;;;;;;;;21.46;62.53;101358.28;4900744;28;122161;-83
2022/07/03 01:50:21;;;;;;;;;;;;;;;21.45;62.73;101357.53;4912236;28;123332;-84
2022/07/03 01:52:47;;;;;;;;;;;;;;;21.44;62.64;101350.41;4890302;28;120981;-84
2022/07/03 01:55:14;;;;;;;;;;;;;;;21.44;62.73;101353.22;4883140;28;123216;-84
2022/07/03 01:57:42;;;;;;;;;;;;;;;21.45;62.76;101349.16;4912819;28;120594;-84
2022/07/03 02:00:22;;;;;;;;;;;;;;;21.47;62.86;101347.88;4876225;28;121181;-84
2022/07/03 02:02:59;;;;;;;;;;;;;;;21.48;63.03;101341.78;4893685;28;123414;-84
2022/07/03 02:05:24;;;;;;;;;;;;;;;21.49;63.16;101340.50;4911885;28;119942;-84
2022/07/03 02:07:58;;;;;;;;;;;;;;;21.49;63.04;101348.88;4912514;28;120550;-84
2022/07/03 02:10:28;;;;;;;;;;;;;;;21.50;62.98;101346.84;4896060;28;124022;-84
2022/07/03 02:13:00;;;;;;;;;;;;;;;21.51;63.22;101342.78;4911383;28;120664;-84
2022/07/03 02:15:35;;;;;;;;;;;;;;;21.51;63.26;101340.75;4879628;28;123132;-83
2022/07/03 02:18:05;;;;;;;;;;;;;;;21.52;63.08;101339.47;4891714;28;120391;-84
2022/07/03 02:20:35;;;;;;;;;;;;;;;21.53;63.23;101337.44;4895477;28;120678;-84
2022/07/03 02:23:02;;;;;;;;;;;;;;;21.54;63.12;101339.00;4889356;28;123263;-84
2022/07/03 02:25:34;;;;;;;;;;;;;;;21.54;63.46;101334.19;4896507;28;120057;-84
2022/07/03 02:28:05;;;;;;;;;;;;;;;21.55;63.50;101326.56;4912686;28;120257;-84
2022/07/03 02:30:34;;;;;;;;;;;;;;;21.56;63.47;101334.41;4878706;28;123856;-84
2022/07/03 02:33:01;;;;;;;;;;;;;;;21.58;63.56;101322.75;4909357;28;121111;-83
2022/07/03 02:35:31;;;;;;;;;;;;;;;21.60;63.66;101320.97;4899937;28;122499;-84
2022/07/03 02:38:08;;;;;;;;;;;;;;;21.61;63.49;101319.69;4881849;28;120169;-84
2022/07/03 02:40:37;;;;;;;;;;;;;;;21.63;63.50;101308.00;4911135;28;122616;-84
2022/07/03 02:43:23;;;;;;;;;;;;;;;21.62;63.60;101303.69;4876728;28;123710;-84
2022/07/03 02:45:55;;;;;;;;;;;;;;;21.63;63.56;101305.22;4889712;28;120222;-84
2022/07/03 02:48:29;;;;;;;;;;;;;;;21.62;63.39;101312.06;4882230;28;126758;-84
2022/07/03 02:50:58;;;;;;;;;;;;;;;21.62;63.36;101295.31;4926486;28;123883;-84
2022/07/03 02:53:26;;;;;;;;;;;;;;;21.63;63.52;101299.63;4879726;28;120552;-84
2022/07/03 02:55:54;;;;;;;;;;;;;;;21.63;63.87;101303.19;4889822;28;122457;-84
2022/07/03 02:58:26;;;;;;;;;;;;;;;21.64;63.61;101301.16;4881211;28;123150;-84
2022/07/03 03:00:59;;;;;;;;;;;;;;;21.64;63.86;101296.31;4911263;28;122195;-84
2022/07/03 03:03:29;;;;;;;;;;;;;;;21.62;63.63;101289.72;4894835;28;123686;-85
2022/07/03 03:05:55;;;;;;;;;;;;;;;21.63;63.97;101285.66;4894368;28;120512;-85
2022/07/03 03:08:28;;;;;;;;;;;;;;;21.64;64.17;101281.59;4880389;28;122622;-84
2022/07/03 03:10:58;;;;;;;;;;;;;;;21.63;63.91;101275.25;4911735;28;120869;-84
2022/07/03 03:13:25;;;;;;;;;;;;;;;21.63;63.95;101282.88;4895631;28;120859;-84
2022/07/03 03:16:02;;;;;;;;;;;;;;;21.63;64.17;101280.84;4891657;28;122440;-84
2022/07/03 03:18:29;;;;;;;;;;;;;;;21.64;64.16;101281.59;4907940;28;123670;-85
2022/07/03 03:20:58;;;;;;;;;;;;;;;21.64;64.06;101287.19;4883477;28;120203;-84
2022/07/03 03:23:35;;;;;;;;;;;;;;;21.65;64.35;101280.31;4894395;28;124289;-85
2022/07/03 03:26:00;;;;;;;;;;;;;;;21.65;64.35;101285.91;4897022;28;120750;-83
2022/07/03 03:28:27;;;;;;;;;;;;;;;21.65;64.24;101271.94;4876388;28;122355;-85
2022/07/03 03:30:53;;;;;;;;;;;;;;;21.65;64.20;101277.53;4910954;28;122214;-83
2022/07/03 03:33:21;;;;;;;;;;;;;;;21.66;64.31;101274.22;4877116;28;120162;-85
2022/07/03 03:35:47;;;;;;;;;;;;;;;21.66;64.63;101271.44;4861731;28;122340;-83
2022/07/03 03:38:13;;;;;;;;;;;;;;;21.68;64.65;101270.91;4892788;28;120452;-84
2022/07/03 03:40:38;;;;;;;;;;;;;;;21.67;64.39;101269.41;4894179;28;120140;-84
2022/07/03 03:43:04;;;;;;;;;;;;;;;21.68;64.70;101266.09;4895806;28;122740;-84
2022/07/03 03:45:30;;;;;;;;;;;;;;;21.69;64.85;101270.41;4892571;28;121167;-84
2022/07/03 03:47:55;;;;;;;;;;;;;;;21.72;64.68;101277.00;4891269;28;121953;-84
2022/07/03 03:50:21;;;;;;;;;;;;;;;21.72;64.68;101271.41;4861806;28;124019;-84
2022/07/03 03:52:47;;;;;;;;;;;;;;;21.72;64.97;101266.59;4860544;28;120668;-84
2022/07/03 03:55:12;;;;;;;;;;;;;;;21.73;64.79;101273.69;4892106;28;122528;-85
2022/07/03 03:57:38;;;;;;;;;;;;;;;21.74;64.82;101269.63;4886396;28;122988;-84
2022/07/03 04:00:05;;;;;;;;;;;;;;;21.76;64.89;101266.31;4869363;28;120187;-84
2022/07/03 04:02:38;;;;;;;;;;;;;;;21.77;64.85;101267.84;4879215;28;122608;-84
2022/07/03 04:05:04;;;;;;;;;;;;;;;21.78;65.14;101263.03;4891829;28;121557;-85
2022/07/03 04:07:29;;;;;;;;;;;;;;;21.78;65.27;101261.00;4910276;28;120243;-84
2022/07/03 04:09:55;;;;;;;;;;;;;;;21.79;65.16;101265.31;4877163;28;123319;-83
2022/07/03 04:12:21;;;;;;;;;;;;;;;21.80;65.25;101260.47;4888961;28;120691;-83
2022/07/03 04:14:46;;;;;;;;;;;;;;;21.81;65.20;101262.75;4894301;28;120572;-85
2022/07/03 04:17:35;;;;;;;;;;;;;;;21.83;65.22;101265.03;4896887;28;123263;-84
2022/07/03 04:20:01;;;;;;;;;;;;;;;21.85;65.04;101262.47;4889917;28;120645;-84
2022/07/03 04:22:26;;;;;;;;;;;;;;;21.84;65.51;101261.72;4875329;28;121872;-84
2022/07/03 04:24:52;;;;;;;;;;;;;;;21.85;65.39;101263.25;4895444;28;123927;-84
2022/07/03 04:27:17;;;;;;;;;;;;;;;21.87;65.33;101271.09;4888847;28;122556;-84
2022/07/03 04:29:43;;;;;;;;;;;;;;;21.88;65.56;101269.81;4907502;28;121240;-84
2022/07/03 04:32:09;;;;;;;;;;;;;;;21.88;65.58;101267.78;4910748;28;121625;-84
2022/07/03 04:34:34;;;;;;;;;;;;;;;21.89;66.17;101271.34;4894109;28;122221;-83
2022/07/03 04:37:00;;;;;;;;;;;;;;;21.89;66.39;101271.34;4892160;28;123621;-84
2022/07/03 04:39:25;;;;;;;;;;;;;;;21.88;66.05;101273.38;4887665;28;120748;-83
2022/07/03 04:41:51;;;;;;;;;;;;;;;21.88;66.13;101278.97;4895886;28;123019;-84
2022/07/03 04:44:17;;;;;;;;;;;;;;;21.88;65.96;101292.94;4874468;28;124268;-84
2022/07/03 04:46:42;;;;;;;;;;;;;;;21.86;66.11;101287.09;4879709;28;120354;-84
2022/07/03 04:49:08;;;;;;;;;;;;;;;21.87;66.41;101277.44;4876113;28;125323;-84
2022/07/03 04:51:33;;;;;;;;;;;;;;;21.86;66.21;101278.72;4883563;28;120487;-84
2022/07/03 04:53:59;;;;;;;;;;;;;;;21.86;67.04;101272.38;4883815;28;122083;-84
2022/07/03 04:56:25;;;;;;;;;;;;;;;21.87;66.57;101271.84;4893720;28;124152;-84
2022/07/03 04:58:50;;;;;;;;;;;;;;;21.87;67.22;101279.47;4904159;28;120740;-84
2022/07/03 05:01:16;;;;;;;;;;;;;;;21.86;67.22;101281.50;4903405;28;122274;-84
2022/07/03 05:03:41;;;;;;;;;;;;;;;21.85;67.04;101285.56;4902050;28;121406;-83
2022/07/03 05:06:07;;;;;;;;;;;;;;;21.86;66.67;101294.72;4900712;28;120837;-84
2022/07/03 05:08:33;;;;;;;;;;;;;;;21.87;67.18;101294.19;4898159;28;120840;-84
2022/07/03 05:11:00;;;;;;;;;;;;;;;21.87;66.86;101299.03;4913749;28;120483;-84
2022/07/03 05:13:25;;;;;;;;;;;;;;;21.86;67.39;101281.50;4903936;28;120430;-84
2022/07/03 05:15:51;;;;;;;;;;;;;;;21.86;67.15;101286.34;4909091;28;120910;-84
2022/07/03 05:18:16;;;;;;;;;;;;;;;21.86;67.22;101270.34;4897267;28;120524;-83
2022/07/03 05:20:41;;;;;;;;;;;;;;;21.86;67.16;101269.56;4908715;28;120630;-83
2022/07/03 05:23:25;;;;;;;;;;;;;;;21.85;67.53;101280.00;4904961;28;120516;-84
2022/07/03 05:25:51;;;;;;;;;;;;;;;21.85;67.42;101288.38;4906457;28;120637;-84
2022/07/03 05:28:16;;;;;;;;;;;;;;;21.87;67.59;101277.44;4891098;28;122962;-84
2022/07/03 05:30:42;;;;;;;;;;;;;;;21.90;67.72;101278.44;4894903;28;124450;-84
2022/07/03 05:33:07;;;;;;;;;;;;;;;21.91;67.49;101280.72;4889550;28;123242;-84
2022/07/03 05:35:35;;;;;;;;;;;;;;;21.92;67.65;101279.44;4907317;28;124115;-84
2022/07/03 05:38:01;;;;;;;;;;;;;;;21.94;67.95;101276.13;4897477;28;120745;-84
2022/07/03 05:40:26;;;;;;;;;;;;;;;21.95;68.08;101278.41;4896115;28;120633;-84
2022/07/03 05:42:53;;;;;;;;;;;;;;;21.95;67.67;101278.41;4880245;28;124306;-84
2022/07/03 05:45:19;;;;;;;;;;;;;;;21.98;68.03;101276.63;4893725;28;120622;-84
2022/07/03 05:47:44;;;;;;;;;;;;;;;21.98;67.64;101277.38;4886923;28;122653;-84
2022/07/03 05:50:10;;;;;;;;;;;;;;;22.00;67.81;101274.06;4903154;28;120966;-84
2022/07/03 05:52:35;;;;;;;;;;;;;;;21.99;67.74;101273.31;4915998;28;120772;-84
2022/07/03 05:55:01;;;;;;;;;;;;;;;22.01;67.30;101268.00;4887899;28;123204;-85
2022/07/03 05:57:26;;;;;;;;;;;;;;;22.05;67.90;101276.13;4886827;28;121161;-84
2022/07/03 05:59:52;;;;;;;;;;;;;;;22.08;67.94;101268.75;4896558;28;120787;-83
2022/07/03 06:02:17;;;;;;;;;;;;;;;22.10;67.65;101266.19;4895909;28;124790;-84
2022/07/03 06:04:43;;;;;;;;;;;;;;;22.13;67.57;101268.69;4892900;28;121561;-84
2022/07/03 06:07:08;;;;;;;;;;;;;;;22.16;68.11;101272.50;4875091;28;123757;-84
2022/07/03 06:09:34;;;;;;;;;;;;;;;22.17;68.32;101279.59;4892810;28;124231;-84
2022/07/03 06:11:59;;;;;;;;;;;;;;;22.18;67.89;101281.09;4880129;28;120818;-84
2022/07/03 06:14:25;;;;;;;;;;;;;;;22.16;68.17;101281.63;4883334;28;123905;-84
2022/07/03 06:16:50;;;;;;;;;;;;;;;22.16;67.70;101280.88;4883490;28;120998;-84
2022/07/03 06:19:16;;;;;;;;;;;;;;;22.14;67.54;101277.84;4900414;28;121101;-84
2022/07/03 06:21:41;;;;;;;;;;;;;;;22.13;67.53;101279.13;4902377;28;124534;-84
2022/07/03 06:24:07;;;;;;;;;;;;;;;22.12;67.88;101277.59;4904722;28;121043;-84
2022/07/03 06:26:32;;;;;;;;;;;;;;;22.11;67.11;101281.66;4878769;28;122783;-84
2022/07/03 06:28:58;;;;;;;;;;;;;;;22.11;67.96;101273.28;4885569;28;125337;-85
2022/07/03 06:31:23;;;;;;;;;;;;;;;22.11;67.33;101281.66;4909746;28;122699;-84
2022/07/03 06:33:49;;;;;;;;;;;;;;;22.11;67.50;101284.47;4890453;28;123112;-83
2022/07/03 06:36:14;;;;;;;;;;;;;;;22.11;67.55;101279.63;4891131;28;120940;-84
2022/07/03 06:38:40;;;;;;;;;;;;;;;22.12;67.47;101264.38;4860912;28;123424;-83
2022/07/03 06:41:05;;;;;;;;;;;;;;;22.13;68.11;101259.56;4877709;28;123849;-84
2022/07/03 06:43:31;;;;;;;;;;;;;;;22.13;67.55;101265.91;4899919;28;121355;-83
2022/07/03 06:45:56;;;;;;;;;;;;;;;22.14;68.37;101261.84;4887285;28;123278;-83
2022/07/03 06:48:22;;;;;;;;;;;;;;;22.14;67.79;101259.03;4880838;28;125097;-84
2022/07/03 06:50:47;;;;;;;;;;;;;;;22.16;68.11;101252.94;4879657;28;121015;-83
2022/07/03 06:53:13;;;;;;;;;;;;;;;22.16;68.28;101258.50;4897962;28;123850;-83
2022/07/03 06:55:38;;;;;;;;;;;;;;;22.16;68.47;101259.28;4874444;28;124219;-83
2022/07/03 06:58:04;;;;;;;;;;;;;;;22.17;68.38;101279.59;4891645;28;122820;-83
2022/07/03 07:00:30;;;;;;;;;;;;;;;22.16;68.62;101290.00;4894851;28;124210;-83
2022/07/03 07:02:55;;;;;;;;;;;;;;;22.16;68.23;101292.81;4884387;28;121483;-83
2022/07/03 07:05:23;;;;;;;;;;;;;;;22.16;68.71;101278.84;4872599;28;123836;-84
2022/07/03 07:07:49;;;;;;;;;;;;;;;22.16;68.36;101283.66;4894132;28;124370;-83
2022/07/03 07:10:17;;;;;;;;;;;;;;;22.17;68.36;101276.81;4901328;28;122444;-83
2022/07/03 07:12:42;;;;;;;;;;;;;;;22.18;68.50;101281.09;4860741;28;123199;-83
2022/07/03 07:15:08;;;;;;;;;;;;;;;22.16;68.88;101264.88;4873999;28;124709;-83
2022/07/03 07:17:34;;;;;;;;;;;;;;;22.18;68.63;101273.47;4871330;28;122203;-83
2022/07/03 07:19:59;;;;;;;;;;;;;;;22.19;69.06;101268.66;4898907;28;122284;-84
2022/07/03 07:22:25;;;;;;;;;;;;;;;22.19;68.59;101263.06;4870195;28;121910;-83
2022/07/03 07:24:51;;;;;;;;;;;;;;;22.20;68.72;101259.00;4886824;28;123321;-84
2022/07/03 07:27:19;;;;;;;;;;;;;;;22.21;68.38;101260.50;4883955;28;125525;-83
2022/07/03 07:29:44;;;;;;;;;;;;;;;22.22;68.57;101256.44;4878305;28;121844;-84
2022/07/03 07:32:10;;;;;;;;;;;;;;;22.23;68.84;101260.75;4875019;28;123300;-83
2022/07/03 07:34:35;;;;;;;;;;;;;;;22.24;68.13;101257.47;4860178;28;124511;-83
2022/07/03 07:37:01;;;;;;;;;;;;;;;22.26;68.44;101256.94;4876552;28;121701;-84
2022/07/03 07:39:27;;;;;;;;;;;;;;;22.27;69.00;101267.59;4894124;28;123444;-83
2022/07/03 07:41:52;;;;;;;;;;;;;;;22.28;68.50;101266.31;4899676;28;122084;-84
2022/07/03 07:44:18;;;;;;;;;;;;;;;22.29;68.68;101272.66;4891112;28;121330;-83
2022/07/03 07:46:44;;;;;;;;;;;;;;;22.29;68.48;101272.66;4874358;28;124488;-83
2022/07/03 07:49:09;;;;;;;;;;;;;;;22.30;68.45;101274.94;4871668;28;121243;-84
2022/07/03 07:51:35;;;;;;;;;;;;;;;22.31;67.90;101284.09;4894925;28;123656;-84
2022/07/03 07:54:00;;;;;;;;;;;;;;;22.33;68.49;101282.28;4888360;28;124874;-83
2022/07/03 07:56:26;;;;;;;;;;;;;;;22.38;68.61;101277.19;4897252;28;121594;-83
2022/07/03 07:58:52;;;;;;;;;;;;;;;22.46;68.70;101278.88;4867050;28;123920;-83
2022/07/03 08:06:46;;;;;;;;;;;;;;;22.70;67.55;101283.03;4893720;28;125240;-83
2022/07/03 08:09:12;;;;;;;;;;;;;;;22.76;67.04;101278.16;4890082;28;122672;-84
2022/07/03 08:11:37;;;;;;;;;;;;;;;22.80;65.62;101276.59;4888453;28;121558;-84
2022/07/03 08:14:04;;;;;;;;;;;;;;;22.84;66.07;101288.28;4887424;28;125232;-84
2022/07/03 08:16:30;;;;;;;;;;;;;;;22.90;65.64;101282.63;4893595;28;121857;-83
2022/07/03 08:18:56;;;;;;;;;;;;;;;22.99;66.16;101282.31;4878395;28;123922;-83
2022/07/03 08:21:25;;;;;;;;;;;;;;;23.11;65.15;101294.91;4884730;28;126045;-83
2022/07/03 08:23:50;;;;;;;;;;;;;;;23.20;65.74;101291.03;4889677;28;123284;-84
2022/07/03 08:26:16;;;;;;;;;;;;;;;23.29;65.47;101296.25;4899605;28;125068;-83
2022/07/03 08:28:41;;;;;;;;;;;;;;;23.40;65.22;101292.56;4886108;28;122036;-83
2022/07/03 08:31:07;;;;;;;;;;;;;;;23.47;65.11;101300.41;4905892;28;122616;-82
2022/07/03 08:33:33;;;;;;;;;;;;;;;23.54;65.17;101297.75;4885971;28;125506;-83
2022/07/03 08:35:58;;;;;;;;;;;;;;;23.63;64.87;101293.84;4904056;28;122228;-83
2022/07/03 08:38:27;;;;;;;;;;;;;;;23.73;64.60;101292.22;4870873;28;124113;-83
2022/07/03 08:40:53;;;;;;;;;;;;;;;23.81;63.74;101301.53;4871359;28;125621;-85
2022/07/03 08:43:19;;;;;;;;;;;;;;;23.88;63.60;101294.56;4894701;28;123951;-82
2022/07/03 08:45:46;;;;;;;;;;;;;;;23.93;63.56;101301.41;4891191;28;124204;-82
2022/07/03 08:48:12;;;;;;;;;;;;;;;23.99;63.28;101304.88;4906323;28;122209;-83
2022/07/03 08:50:41;;;;;;;;;;;;;;;24.06;62.95;101299.44;4890530;28;123998;-83
2022/07/03 08:53:07;;;;;;;;;;;;;;;24.14;63.17;101308.00;4888949;28;125125;-83
2022/07/03 08:55:33;;;;;;;;;;;;;;;24.23;63.48;101304.06;4891863;28;122270;-82
2022/07/03 08:57:58;;;;;;;;;;;;;;;24.28;62.99;101306.78;4890841;28;123716;-82
2022/07/03 09:00:26;;;;;;;;;;;;;;;24.36;63.45;101304.13;4890948;28;123641;-82
2022/07/03 09:02:51;;;;;;;;;;;;;;;24.42;62.86;101297.16;4889815;28;122552;-83
2022/07/03 09:05:17;;;;;;;;;;;;;;;24.48;62.44;101302.69;4911277;28;125047;-83
2022/07/03 09:07:44;;;;;;;;;;;;;;;24.54;62.79;101305.41;4890190;28;122195;-83
2022/07/03 09:10:10;;;;;;;;;;;;;;;24.60;62.27;101306.06;4909726;28;122638;-85
2022/07/03 09:12:36;;;;;;;;;;;;;;;24.64;61.37;101301.66;4888966;28;125288;-83
2022/07/03 09:15:03;;;;;;;;;;;;;;;24.69;61.47;101306.44;4889419;28;122406;-84
2022/07/03 09:17:29;;;;;;;;;;;;;;;24.75;61.59;101304.28;4923986;28;122656;-84
2022/07/03 09:19:57;;;;;;;;;;;;;;;24.80;60.91;101311.09;4875554;28;127024;-85
2022/07/03 09:22:30;;;;;;;;;;;;;;;24.86;60.98;101308.22;4908520;28;122484;-84
2022/07/03 09:25:10;;;;;;;;;;;;;;;24.91;61.25;101296.13;4908166;28;123833;-84
2022/07/03 09:27:36;;;;;;;;;;;;;;;24.94;61.06;101300.66;4911194;28;125694;-84
2022/07/03 09:30:02;;;;;;;;;;;;;;;24.98;59.85;101292.69;4875975;28;125064;-84
2022/07/03 09:32:32;;;;;;;;;;;;;;;25.01;59.53;101297.25;4891211;28;126807;-83
2022/07/03 09:35:20;;;;;;;;;;;;;;;25.06;58.85;101297.13;4891899;28;122597;-84
2022/07/03 09:37:59;;;;;;;;;;;;;;;25.08;57.86;101297.38;4906992;28;122176;-84
2022/07/03 09:40:26;;;;;;;;;;;;;;;25.09;58.13;101298.13;4891979;28;125626;-84
2022/07/03 09:42:58;;;;;;;;;;;;;;;25.11;58.79;101294.78;4908766;28;122017;-83
2022/07/03 09:45:24;;;;;;;;;;;;;;;25.10;58.61;101294.03;4890472;28;122384;-84
2022/07/03 09:47:50;;;;;;;;;;;;;;;25.09;58.45;101290.47;4907084;28;125502;-83
2022/07/03 09:50:16;;;;;;;;;;;;;;;25.09;57.27;101295.34;4911971;28;123873;-84
2022/07/03 09:52:43;;;;;;;;;;;;;;;25.08;56.33;101294.56;4908246;28;122945;-83
2022/07/03 09:55:08;;;;;;;;;;;;;;;25.11;56.02;101292.75;4891177;28;122117;-83
2022/07/03 09:57:34;;;;;;;;;;;;;;;25.16;56.04;101303.09;4906185;28;122722;-84
2022/07/03 10:00:11;;;;;;;;;;;;;;;25.20;55.82;101309.16;4891383;28;125277;-84
2022/07/03 10:02:50;;;;;;;;;;;;;;;25.21;56.01;101307.09;4890736;28;122244;-84
2022/07/03 10:05:16;;;;;;;;;;;;;;;25.20;55.49;101311.22;4906674;28;124264;-83
2022/07/03 10:07:52;;;;;;;;;;;;;;;25.17;55.69;101310.22;4891418;28;126481;-83
2022/07/03 10:10:21;;;;;;;;;;;;;;;25.19;55.54;101301.28;4908396;28;122111;-84
2022/07/03 10:12:48;;;;;;;;;;;;;;;25.20;55.79;101302.78;4927054;28;124960;-84
2022/07/03 10:15:15;;;;;;;;;;;;;;;25.19;55.28;101301.28;4890515;28;122186;-84
2022/07/03 10:17:46;;;;;;;;;;;;;;;25.18;54.88;101300.50;4906929;28;123959;-83
2022/07/03 10:20:14;;;;;;;;;;;;;;;25.20;55.31;101302.78;4874113;28;125677;-84
2022/07/03 10:22:41;;;;;;;;;;;;;;;25.22;54.69;101303.75;4889948;28;122466;-84
2022/07/03 10:25:07;;;;;;;;;;;;;;;25.24;55.22;101306.03;4875814;28;124989;-85
2022/07/03 10:27:33;;;;;;;;;;;;;;;25.27;55.18;101297.28;4906328;28;122530;-84
2022/07/03 10:30:00;;;;;;;;;;;;;;;25.32;55.85;101299.25;4905434;28;122593;-83
2022/07/03 10:32:26;;;;;;;;;;;;;;;25.38;56.24;101293.50;4908691;28;123640;-83
2022/07/03 10:34:52;;;;;;;;;;;;;;;25.44;55.75;101293.41;4905038;28;122723;-84
2022/07/03 10:37:21;;;;;;;;;;;;;;;25.49;55.70;101295.34;4905293;28;123941;-84
2022/07/03 10:46:08;;;;;;;;;;;;;;;25.62;56.17;101292.53;4890130;28;124479;-84
2022/07/03 10:48:53;;;;;;;;;;;;;;;25.67;55.63;101289.63;4873631;28;126009;-83
2022/07/03 10:51:18;;;;;;;;;;;;;;;25.71;55.64;101289.28;4906331;28;123052;-84
2022/07/03 10:53:44;;;;;;;;;;;;;;;25.72;55.04;101285.19;4888558;28;124056;-83
2022/07/03 10:56:09;;;;;;;;;;;;;;;25.76;54.58;101282.03;4892960;28;126753;-85
2022/07/03 10:58:54;;;;;;;;;;;;;;;25.79;54.94;101286.56;4905889;28;123408;-85
2022/07/03 11:01:26;;;;;;;;;;;;;;;25.73;54.42;101285.94;4889499;28;124442;-84
2022/07/03 11:03:55;;;;;;;;;;;;;;;25.72;54.49;101284.44;4874997;28;122146;-85
2022/07/03 11:06:40;;;;;;;;;;;;;;;25.70;53.94;101280.13;4875148;28;124391;-84
2022/07/03 11:09:15;;;;;;;;;;;;;;;25.65;54.16;101280.97;4908209;28;123247;-84
2022/07/03 11:11:55;;;;;;;;;;;;;;;25.58;54.12;101281.63;4890326;28;122307;-84
2022/07/03 11:14:22;;;;;;;;;;;;;;;25.50;54.06;101277.19;4905887;28;122250;-84
2022/07/03 11:16:48;;;;;;;;;;;;;;;25.43;53.64;101275.78;4890176;28;122837;-84
2022/07/03 11:19:14;;;;;;;;;;;;;;;25.37;53.63;101273.09;4894556;28;122539;-84
2022/07/03 11:21:43;;;;;;;;;;;;;;;25.34;53.87;101271.38;4890944;28;125716;-84
2022/07/03 11:24:23;;;;;;;;;;;;;;;25.30;53.97;101281.41;4875264;28;122136;-85
2022/07/03 11:27:08;;;;;;;;;;;;;;;25.25;53.75;101279.47;4890670;28;124545;-84
2022/07/03 11:29:36;;;;;;;;;;;;;;;25.18;54.02;101286.47;4873853;28;125158;-83
2022/07/03 11:32:21;;;;;;;;;;;;;;;25.15;53.87;101284.75;4906901;28;122540;-83
2022/07/03 11:34:47;;;;;;;;;;;;;;;25.16;53.14;101285.50;4890642;28;124232;-84
2022/07/03 11:37:22;;;;;;;;;;;;;;;25.17;52.80;101281.41;4905091;28;125364;-84
2022/07/03 11:39:50;;;;;;;;;;;;;;;25.22;53.34;101286.91;4874696;28;122369;-84
2022/07/03 11:42:17;;;;;;;;;;;;;;;25.27;52.88;101285.28;4909210;28;123715;-84
2022/07/03 11:44:43;;;;;;;;;;;;;;;25.32;53.17;101281.63;4890226;28;122360;-84
2022/07/03 11:47:09;;;;;;;;;;;;;;;25.38;52.70;101279.47;4873632;28;124006;-84
2022/07/03 11:49:47;;;;;;;;;;;;;;;25.44;52.81;101285.72;4905557;28;122527;-84
2022/07/03 11:52:12;;;;;;;;;;;;;;;25.49;52.65;101290.47;4905063;28;123435;-84
2022/07/03 11:54:51;;;;;;;;;;;;;;;25.54;52.44;101283.97;4905689;28;122529;-83
2022/07/03 11:57:17;;;;;;;;;;;;;;;25.57;52.06;101284.97;4872455;28;125319;-84
2022/07/03 11:59:42;;;;;;;;;;;;;;;25.59;51.85;101288.00;4874541;28;122452;-84
2022/07/03 12:02:08;;;;;;;;;;;;;;;25.63;51.21;101288.41;4874503;28;124000;-84
2022/07/03 12:04:33;;;;;;;;;;;;;;;25.61;50.77;101291.78;4892349;28;125822;-84
2022/07/03 12:06:59;;;;;;;;;;;;;;;25.60;50.76;101281.84;4885229;28;123635;-84
2022/07/03 12:09:26;;;;;;;;;;;;;;;25.57;50.87;101285.72;4870791;28;125070;-84
2022/07/03 12:11:59;;;;;;;;;;;;;;;25.56;51.13;101284.22;4903840;28;122453;-84
2022/07/03 12:14:34;;;;;;;;;;;;;;;25.57;51.05;101276.56;4889628;28;124200;-84
2022/07/03 12:16:59;;;;;;;;;;;;;;;25.58;51.13;101278.81;4906624;28;122725;-84
2022/07/03 12:19:25;;;;;;;;;;;;;;;25.58;50.96;101284.44;4887310;28;122340;-83
2022/07/03 12:21:50;;;;;;;;;;;;;;;25.57;51.07;101282.16;4903003;28;122313;-84
2022/07/03 12:24:16;;;;;;;;;;;;;;;25.56;51.35;101284.22;4901838;28;123189;-84
2022/07/03 12:26:41;;;;;;;;;;;;;;;25.58;50.67;101284.44;4875593;28;124020;-84
2022/07/03 12:29:08;;;;;;;;;;;;;;;25.60;50.43;101281.09;4872401;28;128063;-84
2022/07/03 12:31:34;;;;;;;;;;;;;;;25.60;50.82;101273.41;4904657;28;122791;-84
2022/07/03 12:34:01;;;;;;;;;;;;;;;25.61;50.54;101279.78;4888085;28;124144;-84
2022/07/03 12:36:27;;;;;;;;;;;;;;;25.58;50.59;101278.81;4873161;28;126897;-85
2022/07/03 12:38:56;;;;;;;;;;;;;;;25.55;50.08;101287.53;4873398;28;123069;-83
2022/07/03 12:41:22;;;;;;;;;;;;;;;25.51;49.57;101285.06;4887111;28;124203;-83
2022/07/03 12:43:51;;;;;;;;;;;;;;;25.48;49.43;101283.34;4873193;28;125296;-83